Hauptseite
METAR-TAF:

METAR-TAF

Flughäfen :

Flughafen Bahrain

Bahrain, Bahrain

Breite: 26-16N, Länge: 050-39E, Höhe: 2 m

Beobachtung

Neuester Wetterbericht von vor 27 Minuten, um 17:00 UTC
Wind 6 kt aus Ost
Temperatur 35°C
Luftfeuchtigkeit 71%
Luftdruck 998 hPa
Sichtweite 10 km oder mehr
keine Wolken unter 1500 m und keine Kumulonimbus oder Gewitterwolken

METAR: OBBI 231700Z 10006KT CAVOK 35/29 Q0998 NOSIG

Zeit: 20:27 (17:27 UTC)

Prognose

Neuester Wetterbericht von vor 6 Stunden und 27 Minuten, um 11:00 UTC
Gültige Prognose vom 23 um 12 UTC bis 24 um 18 UTC
Wind 7 kt aus Ost
Sichtweite 10 km oder mehr
keine Wolken unter 1500 m und keine Kumulonimbus oder Gewitterwolken

TAF: OBBI 231100Z 2312/2418 09007KT CAVOK

Wetterbeobachtungen und Prognosen von mehr als 4000 Flughäfen (METAR und TAF Bericht).

Die verfügbaren Stationen werden durch gelbe und rote Markierungen auf der Karte dargestellt.

Führen Sie die Maus auf sie, um den Namen der Station zu sehen.

Darauf klicken, um die Beobachtung von Wetterbeobachtungen und Prognosen zu sehen.

Um die Karte zu ändern : klicken Sie auf den grünen Tasten mit einem schwarzen Kreuz Zum Vergrößern, auf den grünen Button mit einem Gedankenstrich zu verkleinern, oder auf die grünen Pfeile für benachbarte Karten.


METAR-TAF: